CAMANCHE RESERVOIR (CMN)

Elevation: 236' · MOKELUMNE R basin · Operator: East Bay Municipal Utility District

Provisional data, subject to change.
Query executed Saturday at 15:49:05   clock

Select a sensor type for a plot of data.
Note: Reservoir Flows are daily averages.

Earlier

Date RES ELE    STORAGE    RES CHG    TOC STO    ABV TOC    OUTFLOW    INFLOW   
 FEET   AF   AF   AF   AF   CFS   CFS  
03/26/2015 182.79 117910 -- 301832 -183922 226 11
03/27/2015 -- -- -- -- -- -- --
03/28/2015 -- -- -- -- -- -- --
03/29/2015 182.43 116580 -- 307515 -- 228 11
03/30/2015 182.29 116070 -- 309302 -- 233 11
03/31/2015 182.16 115590 -- 310910 -- 241 11
04/01/2015 182.01 115040 -- 312617 -197577 240 11
04/02/2015 181.90 114640 -- 314165 -199525 238 11
04/03/2015 181.77 114170 -- 315457 -- 241 11
04/04/2015 181.64 113700 -- 316549 -- 241 11
04/05/2015 181.51 113230 -- 317561 -204331 241 11
04/06/2015 181.38 112770 -- 319254 -- 241 11
04/07/2015 181.34 112620 -- 320826 -208206 222 11
04/08/2015 181.23 112230 -- 322458 -210228 205 11
04/09/2015 181.12 111830 -- 323750 -211920 207 11
04/10/2015 181.01 111440 -- 324592 -- 213 11
04/11/2015 180.89 111020 -- 325659 -- 221 11
04/12/2015 180.77 110590 -- 327145 -216555 221 11
04/13/2015 180.65 110170 -- 329051 -218881 212 11
04/14/2015 180.51 109670 -- 330898 -221228 204 11
04/15/2015 180.41 109320 -- 332614 -223294 204 11
04/16/2015 180.30 108940 -- 334401 -225461 205 11
04/17/2015 180.18 108520 -403 336315 -- 206 11
04/18/2015 180.07 108130 -400 338250 -- 206 11
04/19/2015 179.95 107710 -412 340035 -232325 206 11
04/20/2015 179.83 107300 -363 341849 -234549 218 11
04/21/2015 179.71 106880 -435 343634 -236754 225 11
04/22/2015 179.58 106440 -422 345419 -238979 225 11
04/23/2015 179.46 106020 -434 347213 -- 234 11
04/24/2015 179.35 105641 -379 -- -- 246 1
04/25/2015 -- -- -- -- -- -- --

Later | Latest

Warning! This data is preliminary and subject to revision.

Show CMN Map | Plot CMN Data | 1 Month CMN Data | Real-Time CMN Data | CMN Info